sensor_id;sensor_type;location;lat;lon;timestamp;pressure;altitude;pressure_sealevel;temperature;humidity
39891;BME280;25564;53.312;9.790;2023-03-14T00:01:56;98175.41;;;9.30;100.00
39891;BME280;25564;53.312;9.790;2023-03-14T00:04:27;98177.78;;;9.18;100.00
39891;BME280;25564;53.312;9.790;2023-03-14T00:06:59;98203.06;;;9.24;100.00
39891;BME280;25564;53.312;9.790;2023-03-14T00:09:30;98195.53;;;9.16;100.00
39891;BME280;25564;53.312;9.790;2023-03-14T00:12:01;98169.53;;;9.07;100.00
39891;BME280;25564;53.312;9.790;2023-03-14T00:14:34;98183.16;;;9.17;100.00
39891;BME280;25564;53.312;9.790;2023-03-14T00:17:05;98174.84;;;9.07;100.00
39891;BME280;25564;53.312;9.790;2023-03-14T00:19:37;98161.59;;;9.07;100.00
39891;BME280;25564;53.312;9.790;2023-03-14T00:22:08;98166.25;;;9.20;100.00
39891;BME280;25564;53.312;9.790;2023-03-14T00:24:39;98149.69;;;9.16;100.00
39891;BME280;25564;53.312;9.790;2023-03-14T00:27:10;98145.09;;;9.20;100.00
39891;BME280;25564;53.312;9.790;2023-03-14T00:29:42;98131.84;;;9.20;100.00
39891;BME280;25564;53.312;9.790;2023-03-14T00:32:13;98157.59;;;9.33;100.00
39891;BME280;25564;53.312;9.790;2023-03-14T00:34:45;98153.56;;;9.42;100.00
39891;BME280;25564;53.312;9.790;2023-03-14T00:37:16;98124.69;;;9.37;100.00
39891;BME280;25564;53.312;9.790;2023-03-14T00:39:48;98145.72;;;9.56;100.00
39891;BME280;25564;53.312;9.790;2023-03-14T00:42:19;98140.09;;;9.62;100.00
39891;BME280;25564;53.312;9.790;2023-03-14T00:44:50;98118.41;;;9.56;100.00
39891;BME280;25564;53.312;9.790;2023-03-14T00:47:21;98125.81;;;9.65;100.00
39891;BME280;25564;53.312;9.790;2023-03-14T00:49:53;98124.56;;;9.72;100.00
39891;BME280;25564;53.312;9.790;2023-03-14T00:52:24;98135.66;;;9.78;100.00
39891;BME280;25564;53.312;9.790;2023-03-14T00:54:55;98146.00;;;9.83;100.00
39891;BME280;25564;53.312;9.790;2023-03-14T00:57:27;98147.97;;;9.79;100.00
39891;BME280;25564;53.312;9.790;2023-03-14T00:59:58;98161.63;;;9.88;100.00
39891;BME280;25564;53.312;9.790;2023-03-14T01:02:29;98146.25;;;9.78;100.00
39891;BME280;25564;53.312;9.790;2023-03-14T01:05:01;98159.06;;;9.86;100.00
39891;BME280;25564;53.312;9.790;2023-03-14T01:07:32;98159.94;;;9.87;100.00
39891;BME280;25564;53.312;9.790;2023-03-14T01:10:05;98166.59;;;9.94;100.00
39891;BME280;25564;53.312;9.790;2023-03-14T01:12:37;98162.22;;;9.93;100.00
39891;BME280;25564;53.312;9.790;2023-03-14T01:15:09;98168.47;;;9.92;100.00
39891;BME280;25564;53.312;9.790;2023-03-14T01:17:40;98165.66;;;9.95;100.00
39891;BME280;25564;53.312;9.790;2023-03-14T01:20:13;98159.25;;;9.99;100.00
39891;BME280;25564;53.312;9.790;2023-03-14T01:22:45;98125.16;;;9.93;100.00
39891;BME280;25564;53.312;9.790;2023-03-14T01:25:16;98129.84;;;10.03;100.00
39891;BME280;25564;53.312;9.790;2023-03-14T01:27:48;98113.53;;;9.95;100.00
39891;BME280;25564;53.312;9.790;2023-03-14T01:30:19;98111.13;;;10.06;100.00
39891;BME280;25564;53.312;9.790;2023-03-14T01:32:51;98092.06;;;10.00;100.00
39891;BME280;25564;53.312;9.790;2023-03-14T01:35:22;98081.47;;;10.00;100.00
39891;BME280;25564;53.312;9.790;2023-03-14T01:37:53;98092.91;;;10.00;100.00
39891;BME280;25564;53.312;9.790;2023-03-14T01:40:25;98100.53;;;10.06;100.00
39891;BME280;25564;53.312;9.790;2023-03-14T01:43:00;98083.00;;;10.04;100.00
39891;BME280;25564;53.312;9.790;2023-03-14T01:48:42;98086.44;;;9.90;100.00
39891;BME280;25564;53.312;9.790;2023-03-14T01:51:40;98087.88;;;9.96;100.00
39891;BME280;25564;53.312;9.790;2023-03-14T01:54:18;98090.44;;;9.97;100.00
39891;BME280;25564;53.312;9.790;2023-03-14T01:56:57;98084.03;;;10.01;100.00
39891;BME280;25564;53.312;9.790;2023-03-14T01:59:30;98077.69;;;10.04;100.00
39891;BME280;25564;53.312;9.790;2023-03-14T02:02:04;98061.13;;;10.00;100.00
39891;BME280;25564;53.312;9.790;2023-03-14T02:04:39;98036.84;;;10.08;100.00
39891;BME280;25564;53.312;9.790;2023-03-14T02:07:41;98032.03;;;10.14;100.00
39891;BME280;25564;53.312;9.790;2023-03-14T02:10:18;98025.13;;;10.12;100.00
39891;BME280;25564;53.312;9.790;2023-03-14T02:12:52;98024.63;;;10.05;100.00
39891;BME280;25564;53.312;9.790;2023-03-14T02:15:24;98017.22;;;9.96;100.00
39891;BME280;25564;53.312;9.790;2023-03-14T02:17:56;98012.53;;;9.86;100.00
39891;BME280;25564;53.312;9.790;2023-03-14T02:23:39;98029.38;;;9.84;100.00
39891;BME280;25564;53.312;9.790;2023-03-14T02:28:53;98024.25;;;9.81;100.00
39891;BME280;25564;53.312;9.790;2023-03-14T02:31:25;98024.84;;;9.87;100.00
39891;BME280;25564;53.312;9.790;2023-03-14T02:33:57;98021.75;;;9.94;100.00
39891;BME280;25564;53.312;9.790;2023-03-14T02:36:30;98038.91;;;10.03;100.00
39891;BME280;25564;53.312;9.790;2023-03-14T02:39:20;98032.47;;;10.07;100.00
39891;BME280;25564;53.312;9.790;2023-03-14T02:41:54;98032.41;;;10.08;100.00
39891;BME280;25564;53.312;9.790;2023-03-14T02:44:25;97991.44;;;9.84;100.00
39891;BME280;25564;53.312;9.790;2023-03-14T02:46:57;98034.59;;;10.16;100.00
39891;BME280;25564;53.312;9.790;2023-03-14T02:49:29;98035.97;;;10.23;100.00
39891;BME280;25564;53.312;9.790;2023-03-14T02:52:02;98025.69;;;10.17;100.00
39891;BME280;25564;53.312;9.790;2023-03-14T02:54:34;98026.91;;;10.27;100.00
39891;BME280;25564;53.312;9.790;2023-03-14T02:57:06;98028.97;;;10.22;100.00
39891;BME280;25564;53.312;9.790;2023-03-14T02:59:37;98027.50;;;10.16;100.00
39891;BME280;25564;53.312;9.790;2023-03-14T03:02:08;98036.16;;;10.20;100.00
39891;BME280;25564;53.312;9.790;2023-03-14T03:04:40;98028.44;;;10.15;100.00
39891;BME280;25564;53.312;9.790;2023-03-14T03:07:11;98021.16;;;10.19;100.00
39891;BME280;25564;53.312;9.790;2023-03-14T03:09:42;98011.50;;;10.18;100.00
39891;BME280;25564;53.312;9.790;2023-03-14T03:12:14;98020.94;;;10.24;100.00
39891;BME280;25564;53.312;9.790;2023-03-14T03:14:45;98018.19;;;10.25;100.00
39891;BME280;25564;53.312;9.790;2023-03-14T03:17:16;97988.97;;;10.11;100.00
39891;BME280;25564;53.312;9.790;2023-03-14T03:19:48;98013.75;;;10.26;100.00
39891;BME280;25564;53.312;9.790;2023-03-14T03:22:19;98005.69;;;10.27;100.00
39891;BME280;25564;53.312;9.790;2023-03-14T03:24:50;98011.00;;;10.27;100.00
39891;BME280;25564;53.312;9.790;2023-03-14T03:27:22;97992.19;;;10.16;100.00
39891;BME280;25564;53.312;9.790;2023-03-14T03:29:53;98002.31;;;10.39;100.00
39891;BME280;25564;53.312;9.790;2023-03-14T03:32:24;97990.72;;;10.40;100.00
39891;BME280;25564;53.312;9.790;2023-03-14T03:34:56;97970.59;;;10.38;100.00
39891;BME280;25564;53.312;9.790;2023-03-14T03:37:30;97977.47;;;10.40;100.00
39891;BME280;25564;53.312;9.790;2023-03-14T03:40:02;97958.25;;;10.23;100.00
39891;BME280;25564;53.312;9.790;2023-03-14T03:42:36;97950.66;;;10.16;100.00
39891;BME280;25564;53.312;9.790;2023-03-14T03:45:08;97954.78;;;10.06;100.00
39891;BME280;25564;53.312;9.790;2023-03-14T03:47:39;97951.75;;;9.98;100.00
39891;BME280;25564;53.312;9.790;2023-03-14T03:50:11;97960.91;;;9.93;100.00
39891;BME280;25564;53.312;9.790;2023-03-14T03:52:42;97947.34;;;9.83;100.00
39891;BME280;25564;53.312;9.790;2023-03-14T03:55:13;97941.19;;;9.82;100.00
39891;BME280;25564;53.312;9.790;2023-03-14T03:57:45;97956.72;;;9.89;100.00
39891;BME280;25564;53.312;9.790;2023-03-14T04:00:16;97950.19;;;9.80;100.00
39891;BME280;25564;53.312;9.790;2023-03-14T04:02:48;97955.69;;;9.91;100.00
39891;BME280;25564;53.312;9.790;2023-03-14T04:05:19;97969.72;;;9.93;100.00
39891;BME280;25564;53.312;9.790;2023-03-14T04:07:51;97904.28;;;9.65;100.00
39891;BME280;25564;53.312;9.790;2023-03-14T04:10:22;97938.97;;;9.91;100.00
39891;BME280;25564;53.312;9.790;2023-03-14T04:12:53;97891.97;;;9.64;100.00
39891;BME280;25564;53.312;9.790;2023-03-14T04:15:24;97913.69;;;9.85;100.00
39891;BME280;25564;53.312;9.790;2023-03-14T04:17:57;97945.00;;;10.23;100.00
39891;BME280;25564;53.312;9.790;2023-03-14T04:20:28;97949.56;;;10.35;100.00
39891;BME280;25564;53.312;9.790;2023-03-14T04:23:00;97930.91;;;10.36;100.00
39891;BME280;25564;53.312;9.790;2023-03-14T04:25:31;97943.88;;;10.55;100.00
39891;BME280;25564;53.312;9.790;2023-03-14T04:28:03;97887.66;;;10.22;100.00
39891;BME280;25564;53.312;9.790;2023-03-14T04:30:35;97942.34;;;10.51;100.00
39891;BME280;25564;53.312;9.790;2023-03-14T04:33:06;97940.94;;;10.45;100.00
39891;BME280;25564;53.312;9.790;2023-03-14T04:35:38;97921.25;;;10.35;100.00
39891;BME280;25564;53.312;9.790;2023-03-14T04:38:10;97914.53;;;10.30;100.00
39891;BME280;25564;53.312;9.790;2023-03-14T04:40:42;97934.31;;;10.53;100.00
39891;BME280;25564;53.312;9.790;2023-03-14T04:43:13;97939.41;;;10.56;100.00
39891;BME280;25564;53.312;9.790;2023-03-14T04:45:45;97934.69;;;10.61;100.00
39891;BME280;25564;53.312;9.790;2023-03-14T04:48:16;97943.97;;;10.68;100.00
39891;BME280;25564;53.312;9.790;2023-03-14T04:50:48;97952.97;;;10.65;100.00
39891;BME280;25564;53.312;9.790;2023-03-14T04:53:20;97929.00;;;10.53;100.00
39891;BME280;25564;53.312;9.790;2023-03-14T04:55:53;97924.25;;;10.58;100.00
39891;BME280;25564;53.312;9.790;2023-03-14T04:58:25;97948.03;;;10.59;100.00
39891;BME280;25564;53.312;9.790;2023-03-14T05:01:02;97937.72;;;10.55;100.00
39891;BME280;25564;53.312;9.790;2023-03-14T05:03:33;97911.50;;;10.36;100.00
39891;BME280;25564;53.312;9.790;2023-03-14T05:06:07;97934.78;;;10.45;100.00
39891;BME280;25564;53.312;9.790;2023-03-14T05:08:39;97902.59;;;10.23;100.00
39891;BME280;25564;53.312;9.790;2023-03-14T05:11:10;97924.09;;;10.32;100.00
39891;BME280;25564;53.312;9.790;2023-03-14T05:13:42;97918.41;;;10.24;100.00
39891;BME280;25564;53.312;9.790;2023-03-14T05:16:14;97918.50;;;10.23;100.00
39891;BME280;25564;53.312;9.790;2023-03-14T05:18:45;97907.91;;;10.23;100.00
39891;BME280;25564;53.312;9.790;2023-03-14T05:21:16;97914.63;;;10.28;100.00
39891;BME280;25564;53.312;9.790;2023-03-14T05:23:48;97893.91;;;10.21;100.00
39891;BME280;25564;53.312;9.790;2023-03-14T05:26:19;97931.28;;;10.44;100.00
39891;BME280;25564;53.312;9.790;2023-03-14T05:28:51;97901.00;;;10.34;100.00
39891;BME280;25564;53.312;9.790;2023-03-14T05:31:22;97923.13;;;10.47;100.00
39891;BME280;25564;53.312;9.790;2023-03-14T05:33:54;97933.16;;;10.57;100.00
39891;BME280;25564;53.312;9.790;2023-03-14T05:36:25;97901.34;;;10.42;100.00
39891;BME280;25564;53.312;9.790;2023-03-14T05:38:56;97911.28;;;10.53;100.00
39891;BME280;25564;53.312;9.790;2023-03-14T05:41:28;97898.50;;;10.45;100.00
39891;BME280;25564;53.312;9.790;2023-03-14T05:44:00;97882.69;;;10.44;100.00
39891;BME280;25564;53.312;9.790;2023-03-14T05:46:32;97918.97;;;10.58;100.00
39891;BME280;25564;53.312;9.790;2023-03-14T05:49:03;97906.84;;;10.54;100.00
39891;BME280;25564;53.312;9.790;2023-03-14T05:51:34;97898.13;;;10.52;100.00
39891;BME280;25564;53.312;9.790;2023-03-14T05:54:05;97887.91;;;10.45;100.00
39891;BME280;25564;53.312;9.790;2023-03-14T05:56:37;97899.38;;;10.46;100.00
39891;BME280;25564;53.312;9.790;2023-03-14T05:59:08;97910.63;;;10.49;100.00
39891;BME280;25564;53.312;9.790;2023-03-14T06:01:40;97898.97;;;10.52;100.00
39891;BME280;25564;53.312;9.790;2023-03-14T06:04:12;97910.44;;;10.53;100.00
39891;BME280;25564;53.312;9.790;2023-03-14T06:06:44;97915.56;;;10.56;100.00
39891;BME280;25564;53.312;9.790;2023-03-14T06:09:16;97896.63;;;10.47;100.00
39891;BME280;25564;53.312;9.790;2023-03-14T06:11:47;97906.00;;;10.53;100.00
39891;BME280;25564;53.312;9.790;2023-03-14T06:14:18;97897.38;;;10.49;100.00
39891;BME280;25564;53.312;9.790;2023-03-14T06:16:51;97930.31;;;10.60;100.00
39891;BME280;25564;53.312;9.790;2023-03-14T06:19:23;97921.13;;;10.51;100.00
39891;BME280;25564;53.312;9.790;2023-03-14T06:21:55;97914.97;;;10.51;100.00
39891;BME280;25564;53.312;9.790;2023-03-14T06:24:26;97909.13;;;10.45;100.00
39891;BME280;25564;53.312;9.790;2023-03-14T06:26:57;97914.41;;;10.45;100.00
39891;BME280;25564;53.312;9.790;2023-03-14T06:29:29;97906.22;;;10.36;100.00
39891;BME280;25564;53.312;9.790;2023-03-14T06:32:01;97918.34;;;10.40;100.00
39891;BME280;25564;53.312;9.790;2023-03-14T06:34:32;97935.81;;;10.42;100.00
39891;BME280;25564;53.312;9.790;2023-03-14T06:37:04;97940.59;;;10.37;100.00
39891;BME280;25564;53.312;9.790;2023-03-14T06:39:35;97940.09;;;10.31;100.00
39891;BME280;25564;53.312;9.790;2023-03-14T06:42:07;97933.66;;;10.35;100.00
39891;BME280;25564;53.312;9.790;2023-03-14T06:44:38;97941.13;;;10.42;100.00
39891;BME280;25564;53.312;9.790;2023-03-14T06:47:09;97946.50;;;10.41;100.00
39891;BME280;25564;53.312;9.790;2023-03-14T06:49:41;97927.88;;;10.28;100.00
39891;BME280;25564;53.312;9.790;2023-03-14T06:52:12;97942.56;;;10.34;100.00
39891;BME280;25564;53.312;9.790;2023-03-14T06:54:43;97958.81;;;10.42;100.00
39891;BME280;25564;53.312;9.790;2023-03-14T06:57:15;97966.50;;;10.46;100.00
39891;BME280;25564;53.312;9.790;2023-03-14T06:59:46;97933.56;;;10.36;100.00
39891;BME280;25564;53.312;9.790;2023-03-14T07:02:18;97951.53;;;10.45;100.00
39891;BME280;25564;53.312;9.790;2023-03-14T07:04:51;97959.69;;;10.57;100.00
39891;BME280;25564;53.312;9.790;2023-03-14T07:07:26;97959.88;;;10.68;100.00
39891;BME280;25564;53.312;9.790;2023-03-14T07:09:58;97964.22;;;10.83;100.00
39891;BME280;25564;53.312;9.790;2023-03-14T07:12:29;97952.25;;;11.04;100.00
39891;BME280;25564;53.312;9.790;2023-03-14T07:15:01;97956.97;;;11.13;100.00
39891;BME280;25564;53.312;9.790;2023-03-14T07:17:48;97938.00;;;11.20;100.00
39891;BME280;25564;53.312;9.790;2023-03-14T07:20:20;97969.75;;;11.48;100.00
39891;BME280;25564;53.312;9.790;2023-03-14T07:22:51;97975.75;;;11.78;100.00
39891;BME280;25564;53.312;9.790;2023-03-14T07:25:23;97956.75;;;11.85;100.00
39891;BME280;25564;53.312;9.790;2023-03-14T07:27:54;97980.38;;;12.02;100.00
39891;BME280;25564;53.312;9.790;2023-03-14T07:30:26;97984.47;;;12.20;99.92
39891;BME280;25564;53.312;9.790;2023-03-14T07:32:57;97969.03;;;12.13;99.67
39891;BME280;25564;53.312;9.790;2023-03-14T07:35:29;97971.59;;;12.14;99.42
39891;BME280;25564;53.312;9.790;2023-03-14T07:38:00;97987.31;;;12.17;99.37
39891;BME280;25564;53.312;9.790;2023-03-14T07:40:31;97983.03;;;12.02;99.31
39891;BME280;25564;53.312;9.790;2023-03-14T07:43:03;97967.72;;;11.93;98.88
39891;BME280;25564;53.312;9.790;2023-03-14T07:45:34;97985.47;;;11.92;99.65
39891;BME280;25564;53.312;9.790;2023-03-14T07:48:13;97998.72;;;11.79;99.01
39891;BME280;25564;53.312;9.790;2023-03-14T07:50:48;97986.78;;;11.58;99.06
39891;BME280;25564;53.312;9.790;2023-03-14T07:53:21;98011.44;;;11.60;99.10
39891;BME280;25564;53.312;9.790;2023-03-14T07:55:53;98000.06;;;11.58;99.00
39891;BME280;25564;53.312;9.790;2023-03-14T07:58:25;98012.09;;;11.64;99.42
39891;BME280;25564;53.312;9.790;2023-03-14T08:00:58;97971.06;;;11.55;99.20
39891;BME280;25564;53.312;9.790;2023-03-14T08:03:29;97985.69;;;11.75;99.25
39891;BME280;25564;53.312;9.790;2023-03-14T08:06:01;97986.97;;;11.96;98.96
39891;BME280;25564;53.312;9.790;2023-03-14T08:08:32;97974.84;;;11.92;98.88
39891;BME280;25564;53.312;9.790;2023-03-14T08:11:07;97996.13;;;12.05;98.69
39891;BME280;25564;53.312;9.790;2023-03-14T08:13:39;97992.09;;;12.12;98.42
39891;BME280;25564;53.312;9.790;2023-03-14T08:16:11;97979.25;;;12.19;99.35
39891;BME280;25564;53.312;9.790;2023-03-14T08:18:43;97983.00;;;12.41;99.05
39891;BME280;25564;53.312;9.790;2023-03-14T08:21:14;97987.66;;;12.63;98.79
39891;BME280;25564;53.312;9.790;2023-03-14T08:23:46;97953.81;;;12.53;98.41
39891;BME280;25564;53.312;9.790;2023-03-14T08:26:17;97957.09;;;12.69;98.13
39891;BME280;25564;53.312;9.790;2023-03-14T08:28:48;97972.22;;;12.81;97.67
39891;BME280;25564;53.312;9.790;2023-03-14T08:31:20;97977.63;;;12.92;98.18
39891;BME280;25564;53.312;9.790;2023-03-14T08:33:52;97979.53;;;13.03;97.67
39891;BME280;25564;53.312;9.790;2023-03-14T08:36:24;97966.63;;;13.09;97.19
39891;BME280;25564;53.312;9.790;2023-03-14T08:38:56;97971.00;;;13.23;97.04
39891;BME280;25564;53.312;9.790;2023-03-14T08:41:28;97948.84;;;13.23;97.10
39891;BME280;25564;53.312;9.790;2023-03-14T08:43:59;97953.28;;;13.35;97.21
39891;BME280;25564;53.312;9.790;2023-03-14T08:46:30;97954.34;;;13.32;96.42
39891;BME280;25564;53.312;9.790;2023-03-14T08:49:02;97953.88;;;13.51;96.54
39891;BME280;25564;53.312;9.790;2023-03-14T08:51:33;97976.28;;;13.84;96.00
39891;BME280;25564;53.312;9.790;2023-03-14T08:54:05;97976.00;;;13.99;95.88
39891;BME280;25564;53.312;9.790;2023-03-14T08:56:36;97957.81;;;14.04;95.69
39891;BME280;25564;53.312;9.790;2023-03-14T08:59:09;97960.41;;;14.17;95.62
39891;BME280;25564;53.312;9.790;2023-03-14T09:01:41;97974.84;;;14.15;95.40
39891;BME280;25564;53.312;9.790;2023-03-14T09:04:13;97963.03;;;14.06;94.92
39891;BME280;25564;53.312;9.790;2023-03-14T09:06:44;97959.38;;;13.96;94.89
39891;BME280;25564;53.312;9.790;2023-03-14T09:09:16;97956.44;;;13.88;94.93
39891;BME280;25564;53.312;9.790;2023-03-14T09:11:48;97959.03;;;13.77;94.43
39891;BME280;25564;53.312;9.790;2023-03-14T09:14:19;97948.44;;;13.64;94.61
39891;BME280;25564;53.312;9.790;2023-03-14T09:16:53;97940.75;;;13.48;94.71
39891;BME280;25564;53.312;9.790;2023-03-14T09:19:24;97933.00;;;13.45;94.71
39891;BME280;25564;53.312;9.790;2023-03-14T09:21:56;97952.22;;;13.37;94.08
39891;BME280;25564;53.312;9.790;2023-03-14T09:24:27;97951.47;;;13.35;93.85
39891;BME280;25564;53.312;9.790;2023-03-14T09:26:58;97951.53;;;13.47;93.17
39891;BME280;25564;53.312;9.790;2023-03-14T09:29:30;97954.81;;;13.50;93.13
39891;BME280;25564;53.312;9.790;2023-03-14T09:32:01;97935.69;;;13.56;93.89
39891;BME280;25564;53.312;9.790;2023-03-14T09:34:32;97939.84;;;13.60;93.58
39891;BME280;25564;53.312;9.790;2023-03-14T09:37:07;97944.25;;;13.72;92.93
39891;BME280;25564;53.312;9.790;2023-03-14T09:39:38;97964.16;;;13.80;93.13
39891;BME280;25564;53.312;9.790;2023-03-14T09:42:14;97971.47;;;13.65;92.49
39891;BME280;25564;53.312;9.790;2023-03-14T09:44:56;97977.44;;;13.45;92.83
39891;BME280;25564;53.312;9.790;2023-03-14T09:47:28;97971.75;;;13.13;91.15
39891;BME280;25564;53.312;9.790;2023-03-14T09:50:00;97978.06;;;12.86;93.19
39891;BME280;25564;53.312;9.790;2023-03-14T09:52:37;97995.63;;;12.76;93.08
39891;BME280;25564;53.312;9.790;2023-03-14T09:55:18;98015.31;;;12.61;92.13
39891;BME280;25564;53.312;9.790;2023-03-14T09:57:57;98001.81;;;12.26;93.90
39891;BME280;25564;53.312;9.790;2023-03-14T10:00:31;98055.00;;;11.99;93.09
39891;BME280;25564;53.312;9.790;2023-03-14T10:03:21;98103.72;;;11.30;90.88
39891;BME280;25564;53.312;9.790;2023-03-14T10:05:54;98103.00;;;10.25;90.98
39891;BME280;25564;53.312;9.790;2023-03-14T10:08:27;98114.78;;;9.41;91.51
39891;BME280;25564;53.312;9.790;2023-03-14T10:10:58;98087.75;;;8.70;92.61
39891;BME280;25564;53.312;9.790;2023-03-14T10:13:30;98129.13;;;8.36;93.40
39891;BME280;25564;53.312;9.790;2023-03-14T10:16:04;98152.41;;;8.11;94.22
39891;BME280;25564;53.312;9.790;2023-03-14T10:18:44;98162.22;;;7.71;94.97
39891;BME280;25564;53.312;9.790;2023-03-14T10:21:29;98163.44;;;7.45;94.39
39891;BME280;25564;53.312;9.790;2023-03-14T10:24:18;98192.13;;;7.14;95.30
39891;BME280;25564;53.312;9.790;2023-03-14T10:26:55;98207.56;;;6.82;95.89
39891;BME280;25564;53.312;9.790;2023-03-14T10:29:26;98214.84;;;6.55;95.06
39891;BME280;25564;53.312;9.790;2023-03-14T10:32:06;98226.16;;;6.37;96.18
39891;BME280;25564;53.312;9.790;2023-03-14T10:34:40;98234.03;;;6.37;96.68
39891;BME280;25564;53.312;9.790;2023-03-14T10:37:22;98245.06;;;6.25;96.89
39891;BME280;25564;53.312;9.790;2023-03-14T10:39:55;98238.91;;;6.04;97.06
39891;BME280;25564;53.312;9.790;2023-03-14T10:42:34;98263.13;;;5.90;96.90
39891;BME280;25564;53.312;9.790;2023-03-14T10:45:36;98254.34;;;5.67;97.72
39891;BME280;25564;53.312;9.790;2023-03-14T10:48:19;98303.13;;;5.52;97.09
39891;BME280;25564;53.312;9.790;2023-03-14T10:50:57;98299.75;;;5.23;96.89
39891;BME280;25564;53.312;9.790;2023-03-14T10:53:45;98329.06;;;5.13;97.48
39891;BME280;25564;53.312;9.790;2023-03-14T10:56:22;98322.34;;;5.04;97.87
39891;BME280;25564;53.312;9.790;2023-03-14T10:58:56;98328.22;;;4.86;98.03
39891;BME280;25564;53.312;9.790;2023-03-14T11:01:58;98332.50;;;4.88;98.94
39891;BME280;25564;53.312;9.790;2023-03-14T11:04:46;98351.75;;;4.89;98.38
39891;BME280;25564;53.312;9.790;2023-03-14T11:07:43;98372.88;;;4.86;98.45
39891;BME280;25564;53.312;9.790;2023-03-14T11:15:57;98394.44;;;4.69;99.40
39891;BME280;25564;53.312;9.790;2023-03-14T11:18:51;98449.28;;;4.80;99.88
39891;BME280;25564;53.312;9.790;2023-03-14T11:21:35;98438.41;;;4.63;99.41
39891;BME280;25564;53.312;9.790;2023-03-14T11:26:48;98481.47;;;4.57;98.98
39891;BME280;25564;53.312;9.790;2023-03-14T11:29:39;98468.53;;;4.51;99.37
39891;BME280;25564;53.312;9.790;2023-03-14T11:32:50;98494.53;;;4.60;99.37
39891;BME280;25564;53.312;9.790;2023-03-14T11:35:49;98504.22;;;4.58;99.52
39891;BME280;25564;53.312;9.790;2023-03-14T11:38:39;98519.13;;;4.57;99.57
39891;BME280;25564;53.312;9.790;2023-03-14T11:41:29;98484.41;;;4.46;99.16
39891;BME280;25564;53.312;9.790;2023-03-14T11:44:17;98530.59;;;4.53;98.80
39891;BME280;25564;53.312;9.790;2023-03-14T11:50:08;98550.06;;;4.46;100.00
39891;BME280;25564;53.312;9.790;2023-03-14T11:52:56;98530.78;;;4.47;99.80
39891;BME280;25564;53.312;9.790;2023-03-14T11:55:34;98532.69;;;4.42;99.68
39891;BME280;25564;53.312;9.790;2023-03-14T11:58:14;98545.56;;;4.51;100.00
39891;BME280;25564;53.312;9.790;2023-03-14T12:00:48;98561.38;;;4.48;100.00
39891;BME280;25564;53.312;9.790;2023-03-14T12:03:35;98554.84;;;4.32;100.00
39891;BME280;25564;53.312;9.790;2023-03-14T12:06:24;98545.31;;;4.28;100.00
39891;BME280;25564;53.312;9.790;2023-03-14T12:09:01;98574.69;;;4.42;100.00
39891;BME280;25564;53.312;9.790;2023-03-14T12:14:20;98578.63;;;4.26;99.86
39891;BME280;25564;53.312;9.790;2023-03-14T12:16:55;98600.09;;;4.42;100.00
39891;BME280;25564;53.312;9.790;2023-03-14T12:19:30;98580.50;;;4.21;100.00
39891;BME280;25564;53.312;9.790;2023-03-14T12:22:07;98607.97;;;4.42;100.00
39891;BME280;25564;53.312;9.790;2023-03-14T12:24:45;98583.06;;;4.24;100.00
39891;BME280;25564;53.312;9.790;2023-03-14T12:30:39;98634.56;;;4.93;100.00
39891;BME280;25564;53.312;9.790;2023-03-14T12:35:57;98642.47;;;5.22;100.00
39891;BME280;25564;53.312;9.790;2023-03-14T12:41:14;98658.91;;;5.29;100.00
39891;BME280;25564;53.312;9.790;2023-03-14T12:43:46;98655.34;;;5.32;100.00
39891;BME280;25564;53.312;9.790;2023-03-14T12:48:54;98661.31;;;5.37;100.00
39891;BME280;25564;53.312;9.790;2023-03-14T12:51:42;98698.69;;;5.48;100.00
39891;BME280;25564;53.312;9.790;2023-03-14T12:59:59;98704.59;;;4.63;99.58
39891;BME280;25564;53.312;9.790;2023-03-14T13:02:44;98732.31;;;4.75;99.72
39891;BME280;25564;53.312;9.790;2023-03-14T13:05:20;98719.88;;;4.81;100.00
39891;BME280;25564;53.312;9.790;2023-03-14T13:10:39;98747.56;;;5.25;100.00
39891;BME280;25564;53.312;9.790;2023-03-14T13:13:21;98763.91;;;5.37;100.00
39891;BME280;25564;53.312;9.790;2023-03-14T13:15:57;98769.81;;;5.45;100.00
39891;BME280;25564;53.312;9.790;2023-03-14T13:21:22;98743.97;;;5.28;98.69
39891;BME280;25564;53.312;9.790;2023-03-14T13:24:02;98766.28;;;5.46;96.92
39891;BME280;25564;53.312;9.790;2023-03-14T13:26:39;98785.34;;;5.54;95.35
39891;BME280;25564;53.312;9.790;2023-03-14T13:29:27;98791.59;;;5.50;84.83
39891;BME280;25564;53.312;9.790;2023-03-14T13:32:01;98803.50;;;5.63;91.09
39891;BME280;25564;53.312;9.790;2023-03-14T13:34:33;98806.03;;;5.66;89.49
39891;BME280;25564;53.312;9.790;2023-03-14T13:37:05;98818.13;;;5.73;88.16
39891;BME280;25564;53.312;9.790;2023-03-14T13:39:39;98832.50;;;5.93;89.08
39891;BME280;25564;53.312;9.790;2023-03-14T13:42:15;98791.63;;;5.79;89.74
39891;BME280;25564;53.312;9.790;2023-03-14T13:44:46;98823.19;;;6.10;89.81
39891;BME280;25564;53.312;9.790;2023-03-14T13:47:20;98826.75;;;6.37;89.43
39891;BME280;25564;53.312;9.790;2023-03-14T13:49:53;98831.88;;;6.42;87.28
39891;BME280;25564;53.312;9.790;2023-03-14T13:52:31;98841.88;;;6.59;87.18
39891;BME280;25564;53.312;9.790;2023-03-14T13:55:14;98866.31;;;6.64;87.54
39891;BME280;25564;53.312;9.790;2023-03-14T13:57:53;98870.44;;;6.72;86.86
39891;BME280;25564;53.312;9.790;2023-03-14T14:00:27;98876.47;;;6.76;84.37
39891;BME280;25564;53.312;9.790;2023-03-14T14:02:59;98888.50;;;6.56;79.15
39891;BME280;25564;53.312;9.790;2023-03-14T14:05:31;98896.09;;;6.38;75.37
39891;BME280;25564;53.312;9.790;2023-03-14T14:08:03;98884.50;;;6.15;79.85
39891;BME280;25564;53.312;9.790;2023-03-14T14:10:37;98924.03;;;6.14;75.84
39891;BME280;25564;53.312;9.790;2023-03-14T14:13:13;98914.31;;;6.16;77.49
39891;BME280;25564;53.312;9.790;2023-03-14T14:15:48;98901.84;;;6.22;81.34
39891;BME280;25564;53.312;9.790;2023-03-14T14:18:24;98891.97;;;6.29;82.02
39891;BME280;25564;53.312;9.790;2023-03-14T14:20:57;98922.34;;;6.41;80.10